createdAt,value
2023-05-04T00:00:27.034Z,60.64
2023-05-04T00:00:59.263Z,60.75
2023-05-04T00:01:32.206Z,60.65
2023-05-04T00:02:06.996Z,60.55
2023-05-04T00:02:39.485Z,60.79
2023-05-04T00:03:11.754Z,60.60
2023-05-04T00:03:44.207Z,60.91
2023-05-04T00:04:19.179Z,60.71
2023-05-04T00:04:52.486Z,60.77
2023-05-04T00:05:24.944Z,60.69
2023-05-04T00:05:59.672Z,60.73
2023-05-04T00:06:32.283Z,61.06
2023-05-04T00:07:04.538Z,60.77
2023-05-04T00:07:41.902Z,60.69
2023-05-04T00:08:16.520Z,60.88
2023-05-04T00:08:48.727Z,60.76
2023-05-04T00:09:23.500Z,60.93
2023-05-04T00:09:55.850Z,60.87
2023-05-04T00:10:28.426Z,60.53
2023-05-04T00:11:03.258Z,61.06
2023-05-04T00:11:35.476Z,60.89
2023-05-04T00:12:08.345Z,61.03
2023-05-04T00:12:43.555Z,60.82
2023-05-04T00:13:16.073Z,61.23
2023-05-04T00:13:48.630Z,61.17
2023-05-04T00:14:23.431Z,60.81
2023-05-04T00:14:55.754Z,61.05
2023-05-04T00:15:29.403Z,61.12
2023-05-04T00:16:04.205Z,60.88
2023-05-04T00:16:36.585Z,60.83
2023-05-04T00:17:09.096Z,60.96
2023-05-04T00:17:43.932Z,60.73
2023-05-04T00:18:16.317Z,60.92
2023-05-04T00:18:48.489Z,60.64
2023-05-04T00:19:23.340Z,60.92
2023-05-04T00:19:55.526Z,61.12
2023-05-04T00:20:27.744Z,60.77
2023-05-04T00:21:02.605Z,61.06
2023-05-04T00:21:34.799Z,60.86
2023-05-04T00:22:07.165Z,60.99
2023-05-04T00:22:44.518Z,61.04
2023-05-04T00:23:16.797Z,60.77
2023-05-04T00:23:49.012Z,60.74
2023-05-04T00:24:23.849Z,61.03
2023-05-04T00:24:56.537Z,60.67
2023-05-04T00:25:31.337Z,61.28
2023-05-04T00:26:04.128Z,61.01
2023-05-04T00:26:36.529Z,61.24
2023-05-04T00:27:11.372Z,61.08
2023-05-04T00:27:43.640Z,61.38
2023-05-04T00:28:16.512Z,61.05
2023-05-04T00:28:51.317Z,61.21
2023-05-04T00:29:23.533Z,61.04
2023-05-04T00:29:56.495Z,61.17
2023-05-04T00:30:31.429Z,60.74
2023-05-04T00:31:03.876Z,60.90
2023-05-04T00:31:36.122Z,61.02
2023-05-04T00:32:12.059Z,61.31
2023-05-04T00:32:44.283Z,60.91
2023-05-04T00:33:16.684Z,61.14
2023-05-04T00:33:51.860Z,60.93
2023-05-04T00:34:24.777Z,61.24
2023-05-04T00:34:57.315Z,60.89
2023-05-04T00:35:31.825Z,61.44
2023-05-04T00:36:07.459Z,61.19
2023-05-04T00:36:39.650Z,61.30
2023-05-04T00:37:12.019Z,61.57
2023-05-04T00:37:46.799Z,61.51
2023-05-04T00:38:22.042Z,61.37
2023-05-04T00:38:55.473Z,61.35
2023-05-04T00:39:27.865Z,61.19
2023-05-04T00:40:02.821Z,61.40
2023-05-04T00:40:35.562Z,61.64
2023-05-04T00:41:07.784Z,61.41
2023-05-04T00:41:42.801Z,61.18
2023-05-04T00:42:15.143Z,61.75
2023-05-04T00:42:47.399Z,61.72
2023-05-04T00:43:22.463Z,61.36
2023-05-04T00:43:54.708Z,61.18
2023-05-04T00:44:27.739Z,61.45
2023-05-04T00:44:59.888Z,61.65
2023-05-04T00:45:34.896Z,61.33
2023-05-04T00:46:07.137Z,61.69
2023-05-04T00:46:39.450Z,61.70
2023-05-04T00:47:17.031Z,61.91
2023-05-04T00:47:49.933Z,61.80
2023-05-04T00:48:22.163Z,61.46
2023-05-04T00:48:54.465Z,61.90
2023-05-04T00:49:29.811Z,61.66
2023-05-04T00:50:02.323Z,61.72
2023-05-04T00:50:35.295Z,61.72
2023-05-04T00:51:10.659Z,61.47
2023-05-04T00:51:43.070Z,61.56
2023-05-04T00:52:16.098Z,61.99
2023-05-04T00:52:54.304Z,61.83
2023-05-04T00:53:26.733Z,62.02
2023-05-04T00:53:59.244Z,61.92
2023-05-04T00:54:34.828Z,62.00
2023-05-04T00:55:08.195Z,61.96
2023-05-04T00:55:40.802Z,61.85
2023-05-04T00:56:16.753Z,61.79
2023-05-04T00:56:49.563Z,61.80
2023-05-04T00:57:21.892Z,61.93
2023-05-04T00:57:56.777Z,61.84
2023-05-04T00:58:29.818Z,61.92
2023-05-04T00:59:02.010Z,62.03
2023-05-04T00:59:34.629Z,62.13
2023-05-04T01:00:13.440Z,61.94
2023-05-04T01:00:45.682Z,62.21
2023-05-04T01:01:18.090Z,62.35
2023-05-04T01:01:52.984Z,62.37
2023-05-04T01:02:25.406Z,61.99
2023-05-04T01:02:58.537Z,62.46
2023-05-04T01:03:34.509Z,62.39
2023-05-04T01:04:07.469Z,62.32
2023-05-04T01:04:40.054Z,61.97
2023-05-04T01:05:15.391Z,62.16
2023-05-04T01:05:54.770Z,62.27
2023-05-04T01:06:35.187Z,62.21
2023-05-04T01:07:16.740Z,62.60
2023-05-04T01:08:02.508Z,62.37
2023-05-04T01:08:44.558Z,62.15
2023-05-04T01:09:28.269Z,62.54
2023-05-04T01:10:05.273Z,62.85
2023-05-04T01:10:46.877Z,62.27
2023-05-04T01:11:22.509Z,62.77
2023-05-04T01:12:01.112Z,62.31
2023-05-04T01:12:40.985Z,62.61
2023-05-04T01:13:15.341Z,62.70
2023-05-04T01:13:49.392Z,62.71
2023-05-04T01:14:24.795Z,62.82
2023-05-04T01:14:57.390Z,62.50
2023-05-04T01:15:30.559Z,62.92
2023-05-04T01:16:06.087Z,62.85
2023-05-04T01:16:38.430Z,63.04
2023-05-04T01:17:12.270Z,62.83
2023-05-04T01:17:47.206Z,62.92
2023-05-04T01:18:19.733Z,63.05
2023-05-04T01:18:51.982Z,63.00
2023-05-04T01:19:28.268Z,63.03
2023-05-04T01:20:00.513Z,63.13
2023-05-04T01:20:32.900Z,62.85
2023-05-04T01:21:07.748Z,63.01
2023-05-04T01:21:42.768Z,63.28
2023-05-04T01:22:15.006Z,63.12
2023-05-04T01:22:49.893Z,63.23
2023-05-04T01:23:22.721Z,63.34
2023-05-04T01:23:56.557Z,63.14
2023-05-04T01:24:32.362Z,63.36
2023-05-04T01:25:06.318Z,63.34
2023-05-04T01:25:44.709Z,63.26
2023-05-04T01:26:26.094Z,63.23
2023-05-04T01:27:05.299Z,63.20
2023-05-04T01:27:45.256Z,63.47
2023-05-04T01:28:24.098Z,63.39
2023-05-04T01:29:05.269Z,63.64
2023-05-04T01:29:46.539Z,63.64
2023-05-04T01:30:24.256Z,63.62
2023-05-04T01:31:00.186Z,63.91
2023-05-04T01:31:38.181Z,63.83
2023-05-04T01:32:12.188Z,63.99
2023-05-04T01:32:46.074Z,63.58
2023-05-04T01:33:22.535Z,63.66
2023-05-04T01:33:56.440Z,63.70
2023-05-04T01:34:28.771Z,63.70
2023-05-04T01:35:04.041Z,64.02
2023-05-04T01:35:36.682Z,63.96
2023-05-04T01:36:09.346Z,63.85
2023-05-04T01:36:47.638Z,64.07
2023-05-04T01:37:19.977Z,64.18
2023-05-04T01:37:52.311Z,64.52
2023-05-04T01:38:27.278Z,64.24
2023-05-04T01:38:59.957Z,64.10
2023-05-04T01:39:32.256Z,64.19
2023-05-04T01:40:11.923Z,64.03
2023-05-04T01:40:44.197Z,64.18
2023-05-04T01:41:18.042Z,64.30
2023-05-04T01:41:53.029Z,64.51
2023-05-04T01:42:25.261Z,64.61
2023-05-04T01:42:57.520Z,64.46
2023-05-04T01:43:32.540Z,64.39
2023-05-04T01:44:05.597Z,64.38
2023-05-04T01:44:37.961Z,64.39
2023-05-04T01:45:14.121Z,64.73
2023-05-04T01:45:46.429Z,64.54
2023-05-04T01:46:18.778Z,64.80
2023-05-04T01:46:53.647Z,64.76
2023-05-04T01:47:27.461Z,64.71
2023-05-04T01:47:59.838Z,64.96
2023-05-04T01:48:34.765Z,64.94
2023-05-04T01:49:08.191Z,64.92
2023-05-04T01:49:40.785Z,64.76
2023-05-04T01:50:13.101Z,65.01
2023-05-04T01:50:47.987Z,64.79
2023-05-04T01:51:20.269Z,65.04
2023-05-04T01:51:55.203Z,64.98
2023-05-04T01:52:30.170Z,65.51
2023-05-04T01:53:02.412Z,65.45
2023-05-04T01:53:34.712Z,65.08
2023-05-04T01:54:09.483Z,65.44
2023-05-04T01:54:43.326Z,65.50
2023-05-04T01:55:15.636Z,65.36
2023-05-04T01:55:50.455Z,65.16
2023-05-04T01:56:22.746Z,65.00
2023-05-04T01:56:54.952Z,65.05
2023-05-04T01:57:29.928Z,65.17
2023-05-04T01:58:02.206Z,65.33
2023-05-04T01:58:34.570Z,65.24
2023-05-04T01:59:09.378Z,65.76
2023-05-04T01:59:41.570Z,65.52
2023-05-04T02:00:16.237Z,65.50
2023-05-04T02:00:50.979Z,65.45
2023-05-04T02:01:23.275Z,65.72
2023-05-04T02:01:55.644Z,65.80
2023-05-04T02:02:30.641Z,65.70
2023-05-04T02:03:03.141Z,65.76
2023-05-04T02:03:35.585Z,65.68
2023-05-04T02:04:11.138Z,65.40
2023-05-04T02:04:44.329Z,65.63
2023-05-04T02:05:16.658Z,65.66
2023-05-04T02:05:51.624Z,65.81
2023-05-04T02:06:23.867Z,65.86
2023-05-04T02:06:58.705Z,66.06
2023-05-04T02:07:30.987Z,65.91
2023-05-04T02:08:06.146Z,66.02
2023-05-04T02:08:38.573Z,65.85
2023-05-04T02:09:10.846Z,66.20
2023-05-04T02:09:45.827Z,65.91
2023-05-04T02:10:18.109Z,66.04
2023-05-04T02:10:50.372Z,66.15
2023-05-04T02:11:25.350Z,65.95
2023-05-04T02:11:58.928Z,66.09
2023-05-04T02:12:31.245Z,66.08
2023-05-04T02:13:06.967Z,66.38
2023-05-04T02:13:39.545Z,66.09
2023-05-04T02:14:12.193Z,66.40
2023-05-04T02:14:46.962Z,66.18
2023-05-04T02:15:19.358Z,66.21
2023-05-04T02:15:52.230Z,66.28
2023-05-04T02:16:27.208Z,66.21
2023-05-04T02:16:59.520Z,66.31
2023-05-04T02:17:32.092Z,66.26
2023-05-04T02:18:07.054Z,66.54
2023-05-04T02:18:39.314Z,66.45
2023-05-04T02:19:11.500Z,66.17
2023-05-04T02:19:46.349Z,66.21
2023-05-04T02:20:20.340Z,66.69
2023-05-04T02:20:52.548Z,66.28
2023-05-04T02:21:27.306Z,66.46
2023-05-04T02:22:02.166Z,66.39
2023-05-04T02:22:34.647Z,66.69
2023-05-04T02:23:09.477Z,66.46
2023-05-04T02:23:41.672Z,66.58
2023-05-04T02:24:13.892Z,66.71
2023-05-04T02:24:48.991Z,66.61
2023-05-04T02:25:21.578Z,66.79
2023-05-04T02:25:56.140Z,66.78
2023-05-04T02:26:31.893Z,66.74
2023-05-04T02:27:04.275Z,66.78
2023-05-04T02:27:36.596Z,66.70
2023-05-04T02:28:08.995Z,66.76
2023-05-04T02:28:45.417Z,66.78
2023-05-04T02:29:17.686Z,66.86
2023-05-04T02:29:50.287Z,66.79
2023-05-04T02:30:25.372Z,67.03
2023-05-04T02:30:57.653Z,66.68
2023-05-04T02:31:29.956Z,67.17
2023-05-04T02:32:04.809Z,66.74
2023-05-04T02:32:37.093Z,66.67
2023-05-04T02:33:09.479Z,66.94
2023-05-04T02:33:44.783Z,66.73
2023-05-04T02:34:17.013Z,67.20
2023-05-04T02:34:52.753Z,67.02
2023-05-04T02:35:27.686Z,66.68
2023-05-04T02:35:59.940Z,66.70
2023-05-04T02:36:32.237Z,67.30
2023-05-04T02:37:07.712Z,67.07
2023-05-04T02:37:43.088Z,67.27
2023-05-04T02:38:15.314Z,67.22
2023-05-04T02:38:47.499Z,67.09
2023-05-04T02:39:22.438Z,67.16
2023-05-04T02:39:54.647Z,67.09
2023-05-04T02:40:27.732Z,67.44
2023-05-04T02:41:03.286Z,67.19
2023-05-04T02:41:35.606Z,67.29
2023-05-04T02:42:07.822Z,67.25
2023-05-04T02:42:42.618Z,67.21
2023-05-04T02:43:14.883Z,67.01
2023-05-04T02:43:47.077Z,67.16
2023-05-04T02:44:21.922Z,67.30
2023-05-04T02:44:54.198Z,67.04
2023-05-04T02:45:26.535Z,67.50
2023-05-04T02:46:01.419Z,67.58
2023-05-04T02:46:33.746Z,67.40
2023-05-04T02:47:06.491Z,67.62
2023-05-04T02:47:41.412Z,67.33
2023-05-04T02:48:13.669Z,67.38
2023-05-04T02:48:46.204Z,67.27
2023-05-04T02:49:21.003Z,67.27
2023-05-04T02:49:53.211Z,67.10
2023-05-04T02:50:28.078Z,67.43
2023-05-04T02:51:00.250Z,66.94
2023-05-04T02:51:32.504Z,67.36
2023-05-04T02:52:08.139Z,66.94
2023-05-04T02:52:43.023Z,67.53
2023-05-04T02:53:15.291Z,67.36
2023-05-04T02:53:47.556Z,67.73
2023-05-04T02:54:22.311Z,67.19
2023-05-04T02:54:54.564Z,67.43
2023-05-04T02:55:26.903Z,67.92
2023-05-04T02:56:01.747Z,67.74
2023-05-04T02:56:34.103Z,67.49
2023-05-04T02:57:07.275Z,67.63
2023-05-04T02:57:42.343Z,67.43
2023-05-04T02:58:14.702Z,67.20
2023-05-04T02:58:46.971Z,66.87
2023-05-04T02:59:21.792Z,67.14
2023-05-04T02:59:54.013Z,66.97
2023-05-04T03:00:26.440Z,67.27
2023-05-04T03:01:01.298Z,67.34
2023-05-04T03:01:34.847Z,66.73
2023-05-04T03:02:07.314Z,66.77
2023-05-04T03:02:42.170Z,67.01
2023-05-04T03:03:14.828Z,66.84
2023-05-04T03:03:47.025Z,67.13
2023-05-04T03:04:22.087Z,67.11
2023-05-04T03:04:54.445Z,67.28
2023-05-04T03:05:29.332Z,67.09
2023-05-04T03:06:01.628Z,67.26
2023-05-04T03:06:34.095Z,67.23
2023-05-04T03:07:12.526Z,67.12
2023-05-04T03:07:44.754Z,66.94
2023-05-04T03:08:16.941Z,66.99
2023-05-04T03:08:51.784Z,67.31
2023-05-04T03:09:24.019Z,67.41
2023-05-04T03:09:56.266Z,66.94
2023-05-04T03:10:31.102Z,67.42
2023-05-04T03:11:03.390Z,67.34
2023-05-04T03:11:35.701Z,67.61
2023-05-04T03:12:10.468Z,67.36
2023-05-04T03:12:42.923Z,67.32
2023-05-04T03:13:15.264Z,67.18
2023-05-04T03:13:50.096Z,67.13
2023-05-04T03:14:22.423Z,66.99
2023-05-04T03:14:54.674Z,67.41
2023-05-04T03:15:29.706Z,66.89
2023-05-04T03:16:02.374Z,67.07
2023-05-04T03:16:34.775Z,67.25
2023-05-04T03:17:10.818Z,67.30
2023-05-04T03:17:43.616Z,66.89
2023-05-04T03:18:16.144Z,66.86
2023-05-04T03:18:51.551Z,67.35
2023-05-04T03:19:23.873Z,67.00
2023-05-04T03:19:56.572Z,67.41
2023-05-04T03:20:32.896Z,67.33
2023-05-04T03:21:06.973Z,67.34
2023-05-04T03:21:39.444Z,67.29
2023-05-04T03:22:16.946Z,67.28
2023-05-04T03:22:49.776Z,67.17
2023-05-04T03:23:22.049Z,67.40
2023-05-04T03:23:56.907Z,67.81
2023-05-04T03:24:29.108Z,67.64
2023-05-04T03:25:01.581Z,67.75
2023-05-04T03:25:37.374Z,67.82
2023-05-04T03:26:10.254Z,67.81
2023-05-04T03:26:42.587Z,67.52
2023-05-04T03:27:17.572Z,67.45
2023-05-04T03:27:49.821Z,67.94
2023-05-04T03:28:22.032Z,67.89
2023-05-04T03:28:56.831Z,67.74
2023-05-04T03:29:29.523Z,67.91
2023-05-04T03:30:03.120Z,67.36
2023-05-04T03:30:39.002Z,67.49
2023-05-04T03:31:11.388Z,67.64
2023-05-04T03:31:43.932Z,67.60
2023-05-04T03:32:21.650Z,67.99
2023-05-04T03:32:53.894Z,67.92
2023-05-04T03:33:26.465Z,67.49
2023-05-04T03:34:03.553Z,67.58
2023-05-04T03:34:35.978Z,67.55
2023-05-04T03:35:10.528Z,67.56
2023-05-04T03:35:45.634Z,67.82
2023-05-04T03:36:20.756Z,67.99
2023-05-04T03:36:53.401Z,67.56
2023-05-04T03:37:28.254Z,67.80
2023-05-04T03:38:03.118Z,67.94
2023-05-04T03:38:35.498Z,67.87
2023-05-04T03:39:08.185Z,67.37
2023-05-04T03:39:43.615Z,67.42
2023-05-04T03:40:16.185Z,67.34
2023-05-04T03:40:48.985Z,67.67
2023-05-04T03:41:23.802Z,67.32
2023-05-04T03:41:56.060Z,67.24
2023-05-04T03:42:28.378Z,67.31
2023-05-04T03:43:03.186Z,67.47
2023-05-04T03:43:35.543Z,67.57
2023-05-04T03:44:07.757Z,67.42
2023-05-04T03:44:43.244Z,67.42
2023-05-04T03:45:15.985Z,67.28
2023-05-04T03:45:48.278Z,67.53
2023-05-04T03:46:23.347Z,67.13
2023-05-04T03:46:55.647Z,67.38
2023-05-04T03:47:28.335Z,67.35
2023-05-04T03:48:04.150Z,67.25
2023-05-04T03:48:36.560Z,67.26
2023-05-04T03:49:10.741Z,67.37
2023-05-04T03:49:45.536Z,67.09
2023-05-04T03:50:17.907Z,67.22
2023-05-04T03:50:50.202Z,67.03
2023-05-04T03:51:25.090Z,67.49
2023-05-04T03:51:57.575Z,67.16
2023-05-04T03:52:33.066Z,67.39
2023-05-04T03:53:08.637Z,67.03
2023-05-04T03:54:13.661Z,67.04
2023-05-04T03:54:48.472Z,67.38
2023-05-04T03:55:20.960Z,67.44
2023-05-04T03:55:55.501Z,67.19
2023-05-04T03:56:30.766Z,67.16
2023-05-04T03:57:04.609Z,67.18
2023-05-04T03:57:38.607Z,67.16
2023-05-04T03:58:13.401Z,67.05
2023-05-04T03:58:45.636Z,67.19
2023-05-04T03:59:19.846Z,66.88
2023-05-04T03:59:57.585Z,66.85
2023-05-04T04:00:30.688Z,66.79
2023-05-04T04:01:12.732Z,66.82
2023-05-04T04:01:47.569Z,66.88
2023-05-04T04:02:19.837Z,67.15
2023-05-04T04:02:52.314Z,66.81
2023-05-04T04:03:28.171Z,67.07
2023-05-04T04:04:00.837Z,66.70
2023-05-04T04:04:33.121Z,66.92
2023-05-04T04:05:09.659Z,66.85
2023-05-04T04:05:43.453Z,66.91
2023-05-04T04:06:16.134Z,67.01
2023-05-04T04:06:50.911Z,66.78
2023-05-04T04:07:25.152Z,66.82
2023-05-04T04:08:00.516Z,66.91
2023-05-04T04:08:35.335Z,66.68
2023-05-04T04:09:08.432Z,66.65
2023-05-04T04:09:40.744Z,66.60
2023-05-04T04:10:15.563Z,67.00
2023-05-04T04:10:47.791Z,66.59
2023-05-04T04:11:19.967Z,66.86
2023-05-04T04:11:54.876Z,66.80
2023-05-04T04:12:27.223Z,66.37
2023-05-04T04:12:59.524Z,66.48
2023-05-04T04:13:34.408Z,66.52
2023-05-04T04:14:06.670Z,66.44
2023-05-04T04:14:41.634Z,66.33
2023-05-04T04:15:14.209Z,66.29
2023-05-04T04:15:46.899Z,66.44
2023-05-04T04:16:22.077Z,66.47
2023-05-04T04:16:54.430Z,66.31
2023-05-04T04:17:26.729Z,66.31
2023-05-04T04:18:01.598Z,66.09
2023-05-04T04:18:33.860Z,66.47
2023-05-04T04:19:07.330Z,66.19
2023-05-04T04:19:42.567Z,66.54
2023-05-04T04:20:14.830Z,66.31
2023-05-04T04:20:47.271Z,66.47
2023-05-04T04:21:22.110Z,66.77
2023-05-04T04:21:54.359Z,66.12
2023-05-04T04:22:26.659Z,66.36
2023-05-04T04:23:04.265Z,66.56
2023-05-04T04:23:36.451Z,66.60
2023-05-04T04:24:08.643Z,66.22
2023-05-04T04:24:43.513Z,66.60
2023-05-04T04:25:15.713Z,66.04
2023-05-04T04:25:48.062Z,66.25
2023-05-04T04:26:23.311Z,66.39
2023-05-04T04:26:55.604Z,66.48
2023-05-04T04:27:27.923Z,66.43
2023-05-04T04:28:02.816Z,66.31
2023-05-04T04:28:35.255Z,66.22
2023-05-04T04:29:07.886Z,65.88
2023-05-04T04:29:43.156Z,66.16
2023-05-04T04:30:15.971Z,65.86
2023-05-04T04:30:48.476Z,65.68
2023-05-04T04:31:23.601Z,66.13
2023-05-04T04:31:56.047Z,65.95
2023-05-04T04:32:29.321Z,65.84
2023-05-04T04:33:04.464Z,65.88
2023-05-04T04:33:36.680Z,65.98
2023-05-04T04:34:09.017Z,65.73
2023-05-04T04:34:43.861Z,65.61
2023-05-04T04:35:16.296Z,65.47
2023-05-04T04:35:48.767Z,65.60
2023-05-04T04:36:23.613Z,65.38
2023-05-04T04:36:55.929Z,65.33
2023-05-04T04:37:28.418Z,65.66
2023-05-04T04:38:05.950Z,65.18
2023-05-04T04:38:39.727Z,65.62
2023-05-04T04:39:12.274Z,65.52
2023-05-04T04:39:47.392Z,65.67
2023-05-04T04:40:19.725Z,65.45
2023-05-04T04:40:52.875Z,65.75
2023-05-04T04:41:27.992Z,65.78
2023-05-04T04:42:00.205Z,65.74
2023-05-04T04:42:35.206Z,65.48
2023-05-04T04:43:07.592Z,65.64
2023-05-04T04:43:39.961Z,65.40
2023-05-04T04:44:14.824Z,65.33
2023-05-04T04:44:47.047Z,65.51
2023-05-04T04:45:20.621Z,65.41
2023-05-04T04:45:56.339Z,65.56
2023-05-04T04:46:28.723Z,65.40
2023-05-04T04:47:01.112Z,65.89
2023-05-04T04:47:36.253Z,65.58
2023-05-04T04:48:08.806Z,65.75
2023-05-04T04:48:41.428Z,65.91
2023-05-04T04:49:18.050Z,66.00
2023-05-04T04:49:50.282Z,65.74
2023-05-04T04:50:22.523Z,66.04
2023-05-04T04:50:57.526Z,65.55
2023-05-04T04:51:29.836Z,65.71
2023-05-04T04:52:02.149Z,65.48
2023-05-04T04:52:37.332Z,65.72
2023-05-04T04:53:12.156Z,65.47
2023-05-04T04:53:44.404Z,65.78
2023-05-04T04:54:19.169Z,65.80
2023-05-04T04:54:51.415Z,65.59
2023-05-04T04:55:26.571Z,65.59
2023-05-04T04:55:58.779Z,65.69
2023-05-04T04:56:31.104Z,65.25
2023-05-04T04:57:06.287Z,65.63
2023-05-04T04:57:38.463Z,65.77
2023-05-04T04:58:10.688Z,65.56
2023-05-04T04:58:46.325Z,65.42
2023-05-04T04:59:18.629Z,65.36
2023-05-04T04:59:50.929Z,65.18
2023-05-04T05:00:26.593Z,65.38
2023-05-04T05:00:58.980Z,65.42
2023-05-04T05:01:33.911Z,65.13
2023-05-04T05:02:06.276Z,65.06
2023-05-04T05:02:38.662Z,65.14
2023-05-04T05:03:13.742Z,64.83
2023-05-04T05:03:46.096Z,65.05
2023-05-04T05:04:19.240Z,65.17
2023-05-04T05:04:54.342Z,65.00
2023-05-04T05:05:27.776Z,64.91
2023-05-04T05:06:04.571Z,65.04
2023-05-04T05:06:37.051Z,64.91
2023-05-04T05:07:09.374Z,64.87
2023-05-04T05:07:44.372Z,64.80
2023-05-04T05:08:19.165Z,64.75
2023-05-04T05:08:51.832Z,64.86
2023-05-04T05:09:26.649Z,64.82
2023-05-04T05:09:58.942Z,64.68
2023-05-04T05:10:31.379Z,64.87
2023-05-04T05:11:07.148Z,64.71
2023-05-04T05:11:39.606Z,64.90
2023-05-04T05:12:11.819Z,64.63
2023-05-04T05:12:46.690Z,64.15
2023-05-04T05:13:19.050Z,64.48
2023-05-04T05:13:51.430Z,64.45
2023-05-04T05:14:26.263Z,64.33
2023-05-04T05:14:58.546Z,64.38
2023-05-04T05:15:30.755Z,64.12
2023-05-04T05:16:05.877Z,64.05
2023-05-04T05:16:38.320Z,63.82
2023-05-04T05:17:10.836Z,64.16
2023-05-04T05:17:45.797Z,63.99
2023-05-04T05:18:18.082Z,64.20
2023-05-04T05:18:50.386Z,63.88
2023-05-04T05:19:25.474Z,64.01
2023-05-04T05:19:57.820Z,64.17
2023-05-04T05:20:33.481Z,63.91
2023-05-04T05:21:07.560Z,63.95
2023-05-04T05:21:39.989Z,63.67
2023-05-04T05:22:14.749Z,63.59
2023-05-04T05:22:46.941Z,63.54
2023-05-04T05:23:21.839Z,63.62
2023-05-04T05:23:56.602Z,63.93
2023-05-04T05:24:28.968Z,63.59
2023-05-04T05:25:01.243Z,63.51
2023-05-04T05:25:37.340Z,63.87
2023-05-04T05:26:09.644Z,63.82
2023-05-04T05:26:41.894Z,63.41
2023-05-04T05:27:17.154Z,63.45
2023-05-04T05:27:50.109Z,63.57
2023-05-04T05:28:22.392Z,63.78
2023-05-04T05:28:57.193Z,63.48
2023-05-04T05:29:29.381Z,63.18
2023-05-04T05:30:02.559Z,63.61
2023-05-04T05:30:37.579Z,63.37
2023-05-04T05:31:10.634Z,63.45
2023-05-04T05:31:42.964Z,63.32
2023-05-04T05:32:17.936Z,63.10
2023-05-04T05:32:50.322Z,63.36
2023-05-04T05:33:22.595Z,62.99
2023-05-04T05:33:57.460Z,63.29
2023-05-04T05:34:29.912Z,63.19
2023-05-04T05:35:02.447Z,62.90
2023-05-04T05:35:37.364Z,63.31
2023-05-04T05:36:10.019Z,63.07
2023-05-04T05:36:42.325Z,62.96
2023-05-04T05:37:17.105Z,63.27
2023-05-04T05:37:49.834Z,62.83
2023-05-04T05:38:27.657Z,62.84
2023-05-04T05:38:59.883Z,63.14
2023-05-04T05:39:34.665Z,62.98
2023-05-04T05:40:08.472Z,63.33
2023-05-04T05:40:40.742Z,62.84
2023-05-04T05:41:16.197Z,63.28
2023-05-04T05:41:48.478Z,63.17
2023-05-04T05:42:20.688Z,62.96
2023-05-04T05:42:55.475Z,62.47
2023-05-04T05:43:27.651Z,62.76
2023-05-04T05:43:59.984Z,62.24
2023-05-04T05:44:34.749Z,62.22
2023-05-04T05:45:08.523Z,62.14
2023-05-04T05:45:40.781Z,62.20
2023-05-04T05:46:16.307Z,62.38
2023-05-04T05:46:48.764Z,62.06
2023-05-04T05:47:21.022Z,61.68
2023-05-04T05:47:56.116Z,62.10
2023-05-04T05:48:28.441Z,61.68
2023-05-04T05:49:01.355Z,62.03
2023-05-04T05:49:36.361Z,62.04
2023-05-04T05:50:09.541Z,61.76
2023-05-04T05:50:44.333Z,61.59
2023-05-04T05:51:16.747Z,61.66
2023-05-04T05:51:49.022Z,61.63
2023-05-04T05:52:23.908Z,61.38
2023-05-04T05:52:56.341Z,61.38
2023-05-04T05:53:33.790Z,61.40
2023-05-04T05:54:06.183Z,61.47
2023-05-04T05:54:38.383Z,61.15
2023-05-04T05:55:13.560Z,61.11
2023-05-04T05:55:46.836Z,61.08
2023-05-04T05:56:19.214Z,60.89
2023-05-04T05:56:54.152Z,60.69
2023-05-04T05:57:26.346Z,61.29
2023-05-04T05:57:58.632Z,61.43
2023-05-04T05:58:33.386Z,61.30
2023-05-04T05:59:05.616Z,61.49
2023-05-04T05:59:42.338Z,61.77
2023-05-04T06:00:16.282Z,61.56
2023-05-04T06:00:48.659Z,61.63
2023-05-04T06:01:24.193Z,61.40
2023-05-04T06:01:56.642Z,61.40
2023-05-04T06:02:31.501Z,61.24
2023-05-04T06:03:04.113Z,61.38
2023-05-04T06:03:39.280Z,61.41
2023-05-04T06:04:11.711Z,61.59
2023-05-04T06:04:47.957Z,61.85
2023-05-04T06:05:20.438Z,61.80
2023-05-04T06:05:52.686Z,61.39
2023-05-04T06:06:27.750Z,61.72
2023-05-04T06:06:59.916Z,61.54
2023-05-04T06:07:32.127Z,61.64
2023-05-04T06:08:07.079Z,61.63
2023-05-04T06:08:42.090Z,61.41
2023-05-04T06:09:14.401Z,61.46
2023-05-04T06:09:49.231Z,61.52
2023-05-04T06:10:21.497Z,61.79
2023-05-04T06:10:54.811Z,61.61
2023-05-04T06:11:29.827Z,61.50
2023-05-04T06:12:02.162Z,61.37
2023-05-04T06:12:34.415Z,61.52
2023-05-04T06:13:09.324Z,61.82
2023-05-04T06:13:41.701Z,61.48
2023-05-04T06:14:16.585Z,61.36
2023-05-04T06:14:48.800Z,61.46
2023-05-04T06:15:21.333Z,61.23
2023-05-04T06:15:57.545Z,61.22
2023-05-04T06:16:29.918Z,61.14
2023-05-04T06:17:04.692Z,61.30
2023-05-04T06:17:37.127Z,61.14
2023-05-04T06:18:11.916Z,60.91
2023-05-04T06:18:44.105Z,61.26
2023-05-04T06:19:16.274Z,60.96
2023-05-04T06:19:51.561Z,60.83
2023-05-04T06:20:23.836Z,60.90
2023-05-04T06:20:58.644Z,61.04
2023-05-04T06:21:33.450Z,60.97
2023-05-04T06:22:06.228Z,60.70
2023-05-04T06:22:38.511Z,60.69
2023-05-04T06:23:14.713Z,60.67
2023-05-04T06:23:49.562Z,60.41
2023-05-04T06:24:22.718Z,60.61
2023-05-04T06:25:02.878Z,60.29
2023-05-04T06:25:37.626Z,60.43
2023-05-04T06:26:12.547Z,60.29
2023-05-04T06:26:44.817Z,59.81
2023-05-04T06:27:20.191Z,59.88
2023-05-04T06:27:53.029Z,60.31
2023-05-04T06:28:27.926Z,60.09
2023-05-04T06:29:00.320Z,60.29
2023-05-04T06:29:32.777Z,60.01
2023-05-04T06:30:09.243Z,60.13
2023-05-04T06:30:41.974Z,60.01
2023-05-04T06:31:17.228Z,60.07
2023-05-04T06:31:49.602Z,59.98
2023-05-04T06:32:22.084Z,59.99
2023-05-04T06:32:56.971Z,59.41
2023-05-04T06:33:29.264Z,59.28
2023-05-04T06:34:01.503Z,59.70
2023-05-04T06:34:36.440Z,59.19
2023-05-04T06:35:09.672Z,59.54
2023-05-04T06:35:42.390Z,59.53
2023-05-04T06:36:17.236Z,59.14
2023-05-04T06:36:49.514Z,59.01
2023-05-04T06:37:22.350Z,59.02
2023-05-04T06:37:57.308Z,58.93
2023-05-04T06:38:29.684Z,59.10
2023-05-04T06:39:04.581Z,58.87
2023-05-04T06:39:39.423Z,58.82
2023-05-04T06:40:13.420Z,59.08
2023-05-04T06:40:48.800Z,58.63
2023-05-04T06:41:21.082Z,58.69
2023-05-04T06:41:54.670Z,58.52
2023-05-04T06:42:32.368Z,58.54
2023-05-04T06:43:04.775Z,58.89
2023-05-04T06:43:37.090Z,58.59
2023-05-04T06:44:11.959Z,58.25
2023-05-04T06:44:44.327Z,58.29
2023-05-04T06:45:16.925Z,58.62
2023-05-04T06:45:52.018Z,58.40
2023-05-04T06:46:24.379Z,58.15
2023-05-04T06:46:56.686Z,58.07
2023-05-04T06:47:31.656Z,57.94
2023-05-04T06:48:04.771Z,57.92
2023-05-04T06:48:40.587Z,57.81
2023-05-04T06:49:12.844Z,57.66
2023-05-04T06:49:47.728Z,57.94
2023-05-04T06:50:20.064Z,58.18
2023-05-04T06:50:55.162Z,58.08
2023-05-04T06:51:27.645Z,57.58
2023-05-04T06:51:59.983Z,57.86
2023-05-04T06:52:34.842Z,57.56
2023-05-04T06:53:08.363Z,57.81
2023-05-04T06:53:43.355Z,57.59
2023-05-04T06:54:18.329Z,57.44
2023-05-04T06:54:50.632Z,57.36
2023-05-04T06:55:25.559Z,57.39
2023-05-04T06:55:57.945Z,57.01
2023-05-04T06:56:32.793Z,57.15
2023-05-04T06:57:05.136Z,56.70
2023-05-04T06:57:40.079Z,56.77
2023-05-04T06:58:12.778Z,56.68
2023-05-04T06:58:47.732Z,56.56
2023-05-04T06:59:20.717Z,56.27
2023-05-04T06:59:53.076Z,56.14
2023-05-04T07:00:28.622Z,56.16
2023-05-04T07:01:01.870Z,56.01
2023-05-04T07:01:37.750Z,56.27
2023-05-04T07:02:10.155Z,56.25
2023-05-04T07:02:47.289Z,56.02
2023-05-04T07:03:19.618Z,55.95
2023-05-04T07:03:54.593Z,56.06
2023-05-04T07:04:27.123Z,55.88
2023-05-04T07:05:02.378Z,55.86
2023-05-04T07:05:35.899Z,55.80
2023-05-04T07:06:08.607Z,55.74
2023-05-04T07:06:43.516Z,55.25
2023-05-04T07:07:15.969Z,55.22
2023-05-04T07:07:50.469Z,55.67
2023-05-04T07:08:26.265Z,55.59
2023-05-04T07:08:58.553Z,55.55
2023-05-04T07:09:33.422Z,55.65
2023-05-04T07:10:09.575Z,55.53
2023-05-04T07:10:41.826Z,55.53
2023-05-04T07:11:17.064Z,55.54
2023-05-04T07:11:49.477Z,55.48
2023-05-04T07:12:21.766Z,55.23
2023-05-04T07:12:56.667Z,55.11
2023-05-04T07:13:29.169Z,55.14
2023-05-04T07:14:04.058Z,55.27
2023-05-04T07:14:36.401Z,55.04
2023-05-04T07:15:09.915Z,55.03
2023-05-04T07:15:44.801Z,55.09